Time;durP1;ratioP1;P1;durP2;ratioP2;P2;SDS_P1;SDS_P2;PMS_P1;PMS_P2;Temp;Humidity;BMP_temperature;BMP_pressure;BME280_temperature;BME280_humidity;BME280_pressure;Samples;Min_cycle;Max_cycle;Signal;HPM_P1;HPM_P2
2022/11/05 00:09:28;;;;;;;8.47;5.10;;;;;;;6.12;98.64;101235.19;4980969;28;20208;-75
2022/11/05 00:11:10;;;;;;;9.27;5.00;;;;;;;5.86;97.64;101276.38;4979214;28;20202;-73
2022/11/05 00:19:06;;;;;;;9.80;4.20;;;;;;;5.74;96.31;101283.41;4981160;28;20215;-74
2022/11/05 00:27:01;;;;;;;8.73;4.93;;;;;;;5.70;96.74;101291.69;4967067;28;20195;-73
2022/11/05 00:29:28;;;;;;;8.13;4.97;;;;;;;5.59;96.71;101285.25;4975616;28;20684;-75
2022/11/05 00:31:54;;;;;;;10.57;5.40;;;;;;;5.66;97.37;101291.50;4982284;28;20188;-73
2022/11/05 00:34:19;;;;;;;7.90;4.30;;;;;;;5.61;96.90;101293.81;4980393;28;20184;-74
2022/11/05 00:36:44;;;;;;;9.27;4.67;;;;;;;5.56;96.80;101295.28;4978588;28;20192;-75
2022/11/05 00:39:10;;;;;;;8.60;4.90;;;;;;;5.53;97.42;101299.34;4981482;28;20199;-73
2022/11/05 00:41:35;;;;;;;6.10;4.23;;;;;;;5.47;97.47;101305.00;4980917;28;20184;-73
2022/11/05 00:46:45;;;;;;;8.93;4.40;;;;;;;5.41;96.72;101299.66;4972834;28;20199;-74
2022/11/05 00:49:28;;;;;;;6.03;3.77;;;;;;;5.38;96.55;101304.56;4981825;28;20199;-73
2022/11/05 00:52:54;;;;;;;10.83;4.40;;;;;;;5.35;96.88;101298.47;4976645;28;20188;-74
2022/11/05 00:54:42;;;;;;;7.67;4.03;;;;;;;5.31;97.06;101302.56;4980026;28;20661;-74
2022/11/05 00:57:07;;;;;;;9.70;4.57;;;;;;;5.31;96.30;101299.13;4974151;28;20304;-74
2022/11/05 00:59:33;;;;;;;7.30;4.50;;;;;;;5.31;96.94;101306.75;4975088;28;20193;-73
2022/11/05 01:01:58;;;;;;;6.93;4.00;;;;;;;5.23;96.28;101316.53;4983371;28;20218;-74
2022/11/05 01:04:23;;;;;;;7.50;4.67;;;;;;;5.09;96.62;101317.53;4978442;28;20213;-74
2022/11/05 01:06:49;;;;;;;8.40;4.47;;;;;;;5.14;96.08;101318.63;4977616;28;20267;-74
2022/11/05 01:09:14;;;;;;;10.03;5.00;;;;;;;5.16;96.74;101321.25;4978403;28;20282;-74
2022/11/05 01:11:40;;;;;;;12.07;4.60;;;;;;;5.15;95.77;101315.28;4984789;28;20275;-74
2022/11/05 01:14:12;;;;;;;10.50;4.60;;;;;;;5.14;96.47;101318.63;4973540;28;20222;-74
2022/11/05 01:16:38;;;;;;;7.83;5.10;;;;;;;5.19;96.72;101319.72;4976599;28;20224;-73
2022/11/05 01:19:06;;;;;;;6.03;4.30;;;;;;;5.24;97.12;101322.47;4974492;28;20295;-74
2022/11/05 01:21:32;;;;;;;7.97;4.17;;;;;;;5.24;96.85;101325.00;4981247;28;20195;-74
2022/11/05 01:23:57;;;;;;;7.77;4.33;;;;;;;5.24;96.97;101320.81;4982913;28;20581;-74
2022/11/05 01:26:23;;;;;;;9.53;4.60;;;;;;;5.29;97.83;101326.13;4972822;28;20853;-74
2022/11/05 01:28:53;;;;;;;4.80;4.13;;;;;;;5.32;98.31;101322.06;4964325;28;20195;-74
2022/11/05 01:31:19;;;;;;;5.90;4.30;;;;;;;5.32;98.58;101323.72;4977112;28;20215;-74
2022/11/05 01:33:44;;;;;;;6.93;4.40;;;;;;;5.26;98.46;101331.03;4976592;28;20694;-74
2022/11/05 01:36:10;;;;;;;7.87;4.30;;;;;;;5.21;98.81;101333.34;4969267;28;20200;-75
2022/11/05 01:38:36;;;;;;;6.23;4.27;;;;;;;5.23;98.68;101325.81;4969269;28;20192;-74
2022/11/05 01:41:03;;;;;;;8.53;4.87;;;;;;;5.16;99.02;101323.78;4972914;28;20195;-74
2022/11/05 01:43:44;;;;;;;7.33;4.63;;;;;;;5.07;98.51;101319.13;4971766;28;20214;-74
2022/11/05 01:46:10;;;;;;;5.93;4.67;;;;;;;5.10;99.15;101323.47;4963875;28;20223;-74
2022/11/05 01:48:36;;;;;;;6.13;3.73;;;;;;;5.10;98.71;101326.00;4970422;28;20255;-75
2022/11/05 01:51:12;;;;;;;5.40;3.80;;;;;;;5.06;98.49;101326.69;4970300;28;20214;-73
2022/11/05 01:53:41;;;;;;;7.80;3.60;;;;;;;5.04;98.05;101324.06;4962976;28;20367;-74
2022/11/05 01:56:31;;;;;;;4.90;3.67;;;;;;;4.99;98.40;101328.06;4966411;28;20192;-74
2022/11/05 01:59:04;;;;;;;6.70;4.20;;;;;;;4.92;97.99;101327.69;4967721;28;20658;-74
2022/11/05 02:01:30;;;;;;;6.67;3.87;;;;;;;4.88;98.19;101328.31;4974934;28;20725;-73
2022/11/05 02:04:00;;;;;;;8.43;4.47;;;;;;;4.91;98.37;101330.97;4968165;28;20284;-73
2022/11/05 02:06:28;;;;;;;4.83;4.00;;;;;;;4.87;98.08;101335.03;4968089;28;20196;-74
2022/11/05 02:09:11;;;;;;;5.00;3.93;;;;;;;4.82;98.38;101333.94;4971301;28;20220;-74
2022/11/05 02:11:37;;;;;;;7.80;4.50;;;;;;;4.87;98.31;101332.50;4969399;28;20219;-73
2022/11/05 02:14:03;;;;;;;8.63;4.30;;;;;;;4.86;98.41;101338.38;4965662;28;20250;-73
2022/11/05 02:16:42;;;;;;;7.70;4.13;;;;;;;4.79;98.66;101340.53;4965332;28;20243;-73
2022/11/05 02:19:45;;;;;;;6.77;3.80;;;;;;;4.71;97.99;101337.63;4963408;28;20211;-73
2022/11/05 02:22:32;;;;;;;7.17;4.17;;;;;;;4.62;98.09;101334.63;4965398;28;20219;-73
2022/11/05 02:25:03;;;;;;;10.30;4.10;;;;;;;4.61;97.85;101345.53;4968867;28;20293;-73
2022/11/05 02:27:54;;;;;;;5.73;3.70;;;;;;;4.53;97.42;101334.16;4973968;28;20199;-73
2022/11/05 02:30:31;;;;;;;6.87;4.30;;;;;;;4.49;96.99;101337.31;4941291;28;20700;-74
2022/11/05 02:33:25;;;;;;;5.23;4.17;;;;;;;4.45;97.19;101340.50;4961802;28;20312;-74
2022/11/05 02:36:35;;;;;;;5.17;3.80;;;;;;;4.36;96.64;101339.13;4972023;28;20197;-73
2022/11/05 02:39:14;;;;;;;9.40;3.70;;;;;;;4.31;96.49;101340.56;4971337;28;20246;-73
2022/11/05 02:41:55;;;;;;;5.63;4.13;;;;;;;4.30;96.79;101349.84;4968486;28;20207;-73
2022/11/05 02:44:39;;;;;;;6.90;4.07;;;;;;;4.26;96.44;101342.88;4967135;28;20589;-74
2022/11/05 02:47:14;;;;;;;7.07;4.23;;;;;;;4.25;96.70;101341.13;4978540;28;20282;-73
2022/11/05 02:50:02;;;;;;;7.23;4.37;;;;;;;4.31;96.54;101345.63;4970013;28;21019;-74
2022/11/05 02:53:00;;;;;;;8.57;4.10;;;;;;;4.28;96.88;101343.81;4949009;28;20227;-74
2022/11/05 02:55:33;;;;;;;8.53;4.10;;;;;;;4.20;97.05;101351.81;4970011;28;20204;-73
2022/11/05 02:57:58;;;;;;;7.43;4.50;;;;;;;4.15;97.04;101340.56;4964279;28;20535;-74
2022/11/05 03:00:50;;;;;;;7.20;4.47;;;;;;;4.18;97.45;101343.28;4965918;28;20290;-73
2022/11/05 03:03:31;;;;;;;8.67;4.50;;;;;;;4.11;97.51;101339.53;4974982;28;20581;-73
2022/11/05 03:06:06;;;;;;;7.17;4.73;;;;;;;4.03;97.54;101342.44;4978249;28;20263;-74
2022/11/05 03:08:59;;;;;;;6.10;4.00;;;;;;;4.04;97.67;101344.19;4968940;28;20180;-73
2022/11/05 03:11:31;;;;;;;6.93;4.40;;;;;;;3.92;97.61;101346.94;4978247;28;20577;-73
2022/11/05 03:14:30;;;;;;;5.63;4.10;;;;;;;3.91;97.48;101354.47;4975499;28;20716;-73
2022/11/05 03:17:05;;;;;;;9.97;4.97;;;;;;;3.87;97.45;101350.88;4976348;28;20204;-73
2022/11/05 03:19:45;;;;;;;8.20;4.90;;;;;;;3.84;97.91;101349.84;4986566;28;20286;-74
2022/11/05 03:22:18;;;;;;;9.43;5.03;;;;;;;3.82;97.42;101357.38;4977350;28;20724;-75
2022/11/05 03:24:52;;;;;;;8.70;4.90;;;;;;;3.79;97.31;101359.75;4982333;28;20200;-73
2022/11/05 03:27:25;;;;;;;10.17;5.70;;;;;;;3.82;97.68;101362.44;4974997;28;20855;-73
2022/11/05 03:30:02;;;;;;;6.83;5.47;;;;;;;3.78;97.36;101367.25;4983791;28;20279;-73
2022/11/05 03:32:32;;;;;;;9.03;5.10;;;;;;;3.81;97.90;101377.53;4973168;28;20210;-74
2022/11/05 03:35:14;;;;;;;7.80;4.97;;;;;;;3.76;97.93;101384.91;4976669;28;20677;-73
2022/11/05 03:37:43;;;;;;;6.93;5.47;;;;;;;3.74;97.97;101381.41;4971596;28;20188;-73
2022/11/05 03:40:11;;;;;;;10.00;6.13;;;;;;;3.70;97.59;101383.69;4983782;28;20204;-74
2022/11/05 03:42:42;;;;;;;8.63;6.03;;;;;;;3.66;97.85;101387.72;4980787;28;20672;-73
2022/11/05 03:45:13;;;;;;;9.37;5.53;;;;;;;3.66;98.08;101392.78;4968417;28;20221;-74
2022/11/05 03:47:42;;;;;;;13.73;6.80;;;;;;;3.63;98.22;101402.72;4978104;28;20176;-74
2022/11/05 03:50:21;;;;;;;10.73;6.60;;;;;;;3.57;98.61;101401.50;4974957;28;20192;-74
2022/11/05 03:52:51;;;;;;;11.60;6.80;;;;;;;3.63;98.67;101397.66;4976644;28;20713;-73
2022/11/05 03:55:19;;;;;;;12.27;6.77;;;;;;;3.66;98.80;101414.69;4983543;28;20714;-73
2022/11/05 03:57:50;;;;;;;12.17;7.10;;;;;;;3.62;98.70;101407.69;4980202;28;20184;-74
2022/11/05 04:00:15;;;;;;;13.80;6.80;;;;;;;3.56;98.51;101405.72;4979036;28;20259;-73
2022/11/05 04:02:41;;;;;;;9.67;6.17;;;;;;;3.55;98.88;101408.16;4981457;28;20212;-73
2022/11/05 04:05:06;;;;;;;10.97;6.60;;;;;;;3.54;99.37;101407.28;4977686;28;20750;-73
2022/11/05 04:18:28;;;;;;;7.50;4.83;;;;;;;3.37;98.48;101413.06;4977839;28;20700;-74
2022/11/05 04:26:22;;;;;;;5.03;4.10;;;;;;;3.34;98.48;101414.53;4978796;28;20291;-73
2022/11/05 04:31:35;;;;;;;5.40;4.10;;;;;;;3.35;98.77;101412.09;4978923;28;20199;-74
2022/11/05 04:34:01;;;;;;;6.53;4.00;;;;;;;3.33;97.97;101417.84;4983338;28;20204;-74
2022/11/05 04:36:27;;;;;;;6.73;4.50;;;;;;;3.32;98.39;101414.44;4976003;28;20263;-73
2022/11/05 04:38:52;;;;;;;6.93;4.53;;;;;;;3.29;98.90;101421.88;4979617;28;20196;-73
2022/11/05 04:41:18;;;;;;;6.30;4.90;;;;;;;3.30;98.49;101425.25;4979592;28;20207;-73
2022/11/05 04:43:43;;;;;;;5.40;4.40;;;;;;;3.30;98.35;101428.66;4978320;28;20207;-73
2022/11/05 04:46:09;;;;;;;7.20;4.70;;;;;;;3.26;98.70;101433.47;4975122;28;20256;-73
2022/11/05 04:48:35;;;;;;;6.37;4.53;;;;;;;3.30;98.79;101426.13;4970228;28;20204;-73
2022/11/05 04:51:01;;;;;;;7.87;5.07;;;;;;;3.24;99.19;101427.44;4979910;28;20227;-73
2022/11/05 04:53:26;;;;;;;14.10;6.03;;;;;;;3.21;99.24;101443.31;4976560;28;20267;-73
2022/11/05 04:55:52;;;;;;;33.37;11.37;;;;;;;3.15;99.19;101449.69;4976189;28;20184;-74
2022/11/05 04:58:17;;;;;;;28.93;11.47;;;;;;;3.18;99.78;101438.06;4973403;28;20195;-73
2022/11/05 05:00:42;;;;;;;32.87;13.03;;;;;;;3.16;99.24;101439.66;4977801;28;20196;-73
2022/11/05 05:03:08;;;;;;;29.87;13.87;;;;;;;3.09;100.00;101442.59;4973298;28;20216;-74
2022/11/05 05:05:34;;;;;;;26.80;13.30;;;;;;;3.08;100.00;101445.06;4979479;28;20212;-74
2022/11/05 05:08:01;;;;;;;29.17;13.73;;;;;;;3.04;99.61;101438.06;4975721;28;20200;-73
2022/11/05 05:10:26;;;;;;;26.63;15.50;;;;;;;3.01;99.83;101438.78;4970706;28;20202;-73
2022/11/05 05:12:52;;;;;;;28.70;14.27;;;;;;;3.01;100.00;101443.84;4973029;28;20227;-73
2022/11/05 05:15:17;;;;;;;25.13;14.10;;;;;;;2.99;99.41;101442.84;4972545;28;20193;-73
2022/11/05 05:17:43;;;;;;;24.37;13.50;;;;;;;2.99;99.53;101444.53;4968291;28;20224;-74
2022/11/05 05:22:53;;;;;;;16.60;12.03;;;;;;;3.03;99.43;101443.94;4965319;28;20217;-73
2022/11/05 05:25:19;;;;;;;21.33;10.57;;;;;;;3.03;98.96;101444.78;4970844;28;20673;-73
2022/11/05 05:27:45;;;;;;;15.40;10.30;;;;;;;3.03;98.86;101451.50;4971613;28;20199;-74
2022/11/05 05:30:11;;;;;;;14.40;10.73;;;;;;;2.98;99.77;101451.22;4971627;28;20635;-73
2022/11/05 05:32:36;;;;;;;14.70;9.73;;;;;;;2.93;99.45;101451.72;4968225;28;20216;-74
2022/11/05 05:35:02;;;;;;;15.13;9.30;;;;;;;2.92;99.34;101457.56;4968449;28;20203;-73
2022/11/05 05:37:27;;;;;;;12.17;8.83;;;;;;;2.91;99.68;101459.25;4975053;28;20202;-73
2022/11/05 05:39:53;;;;;;;12.63;8.67;;;;;;;2.85;99.49;101461.41;4954245;28;20655;-74
2022/11/05 05:42:20;;;;;;;12.77;7.47;;;;;;;2.87;99.05;101472.50;4970695;28;20216;-73
2022/11/05 05:44:46;;;;;;;11.57;8.10;;;;;;;2.85;98.95;101468.13;4972649;28;20231;-73
2022/11/05 05:47:13;;;;;;;11.70;7.97;;;;;;;2.82;99.50;101471.34;4970672;28;20202;-73
2022/11/05 05:49:38;;;;;;;10.07;7.17;;;;;;;2.82;98.62;101470.47;4969831;28;20220;-73
2022/11/05 05:52:04;;;;;;;10.17;7.77;;;;;;;2.83;99.15;101469.66;4972046;28;20311;-74
2022/11/05 05:54:29;;;;;;;10.80;7.63;;;;;;;2.77;98.38;101481.94;4972495;28;20184;-74
2022/11/05 05:56:55;;;;;;;9.73;6.77;;;;;;;2.74;99.26;101485.16;4973102;28;20793;-73
2022/11/05 05:59:20;;;;;;;10.33;6.67;;;;;;;2.78;99.26;101482.06;4973476;28;20206;-73
2022/11/05 06:01:46;;;;;;;14.17;6.70;;;;;;;2.80;98.75;101485.53;4971760;28;20196;-73
2022/11/05 06:04:12;;;;;;;9.00;6.60;;;;;;;2.79;99.32;101485.44;4979157;28;20228;-73
2022/11/05 06:06:37;;;;;;;8.50;6.00;;;;;;;2.82;99.64;101490.69;4973886;28;20243;-72
2022/11/05 06:09:03;;;;;;;11.00;6.80;;;;;;;2.80;99.26;101489.72;4979249;28;20184;-73
2022/11/05 06:11:28;;;;;;;9.57;6.70;;;;;;;2.78;99.56;101497.22;4976703;28;20937;-73
2022/11/05 06:13:54;;;;;;;11.77;7.37;;;;;;;2.76;98.87;101491.19;4969907;28;20237;-73
2022/11/05 06:16:19;;;;;;;10.27;6.50;;;;;;;2.74;99.15;101491.88;4982379;28;20212;-73
2022/11/05 06:18:46;;;;;;;10.73;7.53;;;;;;;2.76;99.53;101501.28;4974032;28;20666;-73
2022/11/05 06:21:16;;;;;;;12.07;7.27;;;;;;;2.79;100.00;101501.50;4978641;28;20274;-75
2022/11/05 06:23:43;;;;;;;11.73;6.90;;;;;;;2.82;100.00;101506.75;4972406;28;20344;-73
2022/11/05 06:26:14;;;;;;;10.47;7.10;;;;;;;2.80;99.53;101505.75;4975043;28;20211;-73
2022/11/05 06:28:40;;;;;;;11.60;6.93;;;;;;;2.80;99.94;101507.44;4976605;28;20731;-73
2022/11/05 06:31:07;;;;;;;11.67;7.60;;;;;;;2.80;99.77;101509.97;4955872;28;20190;-74
2022/11/05 06:33:32;;;;;;;10.23;6.57;;;;;;;2.79;99.65;101513.25;4978460;28;20222;-73
2022/11/05 06:35:58;;;;;;;8.43;6.70;;;;;;;2.82;99.37;101514.31;4973969;28;20188;-73
2022/11/05 06:38:24;;;;;;;14.77;8.07;;;;;;;2.76;100.00;101513.06;4981197;28;20188;-74
2022/11/05 06:40:49;;;;;;;11.50;7.73;;;;;;;2.78;100.00;101521.63;4979747;28;20804;-74
2022/11/05 06:43:15;;;;;;;11.10;6.97;;;;;;;2.79;99.63;101516.66;4976710;28;20215;-73
2022/11/05 06:45:40;;;;;;;13.77;6.60;;;;;;;2.79;100.00;101518.28;4974087;28;20301;-73
2022/11/05 06:48:06;;;;;;;11.13;7.00;;;;;;;2.85;99.34;101526.28;4974436;28;20714;-73
2022/11/05 06:50:31;;;;;;;10.80;6.63;;;;;;;2.87;99.69;101533.16;4978968;28;20192;-73
2022/11/05 06:53:00;;;;;;;9.67;7.57;;;;;;;2.91;99.53;101526.63;4979872;28;20274;-74
2022/11/05 06:55:28;;;;;;;12.50;9.60;;;;;;;2.98;99.81;101532.16;4974221;28;20728;-73
2022/11/05 06:57:54;;;;;;;12.27;8.00;;;;;;;2.99;99.86;101538.09;4982420;28;20191;-74
2022/11/05 07:00:19;;;;;;;11.20;8.27;;;;;;;3.06;100.00;101535.13;4979626;28;20611;-74
2022/11/05 07:02:45;;;;;;;12.40;7.70;;;;;;;3.09;100.00;101546.31;4981584;28;20303;-74
2022/11/05 07:05:12;;;;;;;13.80;7.60;;;;;;;3.10;100.00;101542.13;4978590;28;20680;-73
2022/11/05 07:07:41;;;;;;;12.20;8.47;;;;;;;3.16;100.00;101542.50;4975636;28;20197;-73
2022/11/05 07:10:10;;;;;;;12.23;8.63;;;;;;;3.27;100.00;101539.81;4984300;28;20543;-74
2022/11/05 07:12:36;;;;;;;14.00;8.17;;;;;;;3.36;100.00;101547.94;4982448;28;20291;-73
2022/11/05 07:15:02;;;;;;;10.27;7.40;;;;;;;3.41;100.00;101548.22;4976824;28;20622;-73
2022/11/05 07:17:28;;;;;;;9.77;7.17;;;;;;;3.45;100.00;101550.16;4979909;28;20472;-73
2022/11/05 07:19:53;;;;;;;10.60;6.90;;;;;;;3.45;100.00;101555.22;4978237;28;20270;-74
2022/11/05 07:22:18;;;;;;;10.23;6.67;;;;;;;3.46;100.00;101557.84;4975981;28;20208;-73
2022/11/05 07:24:46;;;;;;;11.87;7.07;;;;;;;3.56;100.00;101571.91;4975116;28;20864;-73
2022/11/05 07:27:12;;;;;;;11.47;7.07;;;;;;;3.55;100.00;101571.00;4972267;28;20200;-75
2022/11/05 07:29:37;;;;;;;11.13;7.13;;;;;;;3.55;100.00;101576.06;4980944;28;20199;-75
2022/11/05 07:32:03;;;;;;;9.57;6.90;;;;;;;3.72;100.00;101575.41;4992017;28;20665;-77
2022/11/05 07:34:28;;;;;;;14.83;8.77;;;;;;;3.88;100.00;101560.34;4986269;28;20239;-77
2022/11/05 07:36:54;;;;;;;11.07;6.83;;;;;;;4.00;100.00;101572.81;4977957;28;20763;-76
2022/11/05 07:39:20;;;;;;;9.33;7.00;;;;;;;4.07;100.00;101569.84;4980444;28;20279;-77
2022/11/05 07:41:45;;;;;;;9.27;6.57;;;;;;;4.12;100.00;101565.91;4985627;28;20239;-77
2022/11/05 07:44:10;;;;;;;10.83;6.27;;;;;;;4.27;100.00;101560.03;4985424;28;20298;-78
2022/11/05 07:46:36;;;;;;;8.90;6.50;;;;;;;4.36;100.00;101564.72;4978386;28;20224;-76
2022/11/05 07:49:02;;;;;;;14.10;7.30;;;;;;;4.52;100.00;101569.84;4981903;28;20184;-77
2022/11/05 07:51:28;;;;;;;18.50;8.23;;;;;;;4.75;100.00;101575.38;4985196;28;20229;-77
2022/11/05 07:53:53;;;;;;;14.97;8.20;;;;;;;4.86;100.00;101570.88;4981516;28;20240;-76
2022/11/05 07:56:19;;;;;;;11.93;8.10;;;;;;;4.93;100.00;101581.44;4979617;28;20730;-76
2022/11/05 07:58:44;;;;;;;15.77;7.70;;;;;;;5.05;100.00;101574.47;4987954;28;20639;-78
2022/11/05 08:01:09;;;;;;;13.07;7.97;;;;;;;5.19;100.00;101577.72;4979486;28;20196;-77
2022/11/05 08:03:35;;;;;;;19.40;9.00;;;;;;;5.37;100.00;101571.97;4956500;28;20226;-78
2022/11/05 08:06:00;;;;;;;16.43;8.70;;;;;;;5.51;100.00;101571.00;4979898;28;20216;-77
2022/11/05 08:08:26;;;;;;;17.30;9.10;;;;;;;5.69;100.00;101571.94;4977707;28;20278;-77
2022/11/05 08:10:51;;;;;;;11.73;8.37;;;;;;;5.84;100.00;101575.25;4976726;28;20234;-77
2022/11/05 08:13:17;;;;;;;13.30;8.03;;;;;;;5.99;100.00;101570.06;4979774;28;20212;-78
2022/11/05 08:15:43;;;;;;;13.07;7.70;;;;;;;6.17;100.00;101576.91;4973769;28;20181;-78
2022/11/05 08:18:14;;;;;;;14.27;7.77;;;;;;;6.34;100.00;101575.16;4986691;28;20210;-77
2022/11/05 08:20:41;;;;;;;14.87;7.90;;;;;;;6.50;100.00;101572.56;4972454;28;20202;-78
2022/11/05 08:23:08;;;;;;;22.13;11.00;;;;;;;6.75;100.00;101570.34;4981811;28;20212;-78
2022/11/05 08:25:33;;;;;;;19.37;12.10;;;;;;;7.01;100.00;101573.25;4979662;28;20217;-77
2022/11/05 08:28:01;;;;;;;10.27;6.80;;;;;;;7.29;100.00;101577.94;4981691;28;20531;-78
2022/11/05 08:30:27;;;;;;;8.80;5.13;;;;;;;7.59;99.59;101564.84;4984596;28;20195;-77
2022/11/05 08:33:05;;;;;;;9.20;4.63;;;;;;;7.95;97.86;101566.38;4977387;28;20208;-78
2022/11/05 08:35:30;;;;;;;10.60;4.27;;;;;;;8.38;96.21;101564.78;4980133;28;20278;-78
2022/11/05 08:37:58;;;;;;;7.37;5.03;;;;;;;8.91;93.33;101566.84;4977532;28;20276;-78
2022/11/05 08:40:25;;;;;;;13.60;8.30;;;;;;;11.22;85.35;101557.56;4982785;28;20240;-78
2022/11/05 08:42:50;;;;;;;10.77;7.03;;;;;;;13.64;73.14;101547.03;4981243;28;20212;-78
2022/11/05 08:45:16;;;;;;;11.17;6.00;;;;;;;15.09;64.25;101533.00;4980693;28;20219;-79
2022/11/05 08:47:41;;;;;;;8.83;4.90;;;;;;;15.52;61.61;101537.84;4987072;28;20214;-78
2022/11/05 08:50:07;;;;;;;6.80;4.23;;;;;;;16.52;58.25;101536.16;4982370;28;20235;-78
2022/11/05 08:52:32;;;;;;;7.10;2.90;;;;;;;16.10;57.86;101550.44;4975704;28;20212;-77
2022/11/05 08:54:58;;;;;;;6.00;2.70;;;;;;;15.74;58.68;101552.72;4981297;28;20188;-76
2022/11/05 08:57:23;;;;;;;8.27;2.70;;;;;;;15.86;58.76;101552.81;4975250;28;20649;-77
2022/11/05 08:59:49;;;;;;;8.07;3.10;;;;;;;16.76;56.81;101553.56;4984450;28;20258;-76
2022/11/05 09:02:14;;;;;;;5.23;2.50;;;;;;;16.18;58.57;101553.97;4981188;28;20208;-76
2022/11/05 09:04:40;;;;;;;6.43;2.73;;;;;;;17.16;55.83;101550.28;4979593;28;20322;-76
2022/11/05 09:07:05;;;;;;;4.73;2.70;;;;;;;16.60;56.91;101550.00;4981324;28;20649;-77
2022/11/05 09:09:31;;;;;;;6.93;2.72;;;;;;;17.38;55.10;101550.38;4979165;28;20188;-77
2022/11/05 09:11:57;;;;;;;5.75;2.83;;;;;;;17.23;55.62;101547.72;4982665;28;20192;-77
2022/11/05 09:14:25;;;;;;;6.05;2.50;;;;;;;18.12;52.65;101541.03;4979218;28;20188;-76
2022/11/05 09:16:51;;;;;;;5.70;2.50;;;;;;;18.93;50.56;101537.44;4979173;28;20239;-77
2022/11/05 09:19:16;;;;;;;4.32;2.67;;;;;;;19.01;50.18;101538.25;4986363;28;20203;-77
2022/11/05 09:21:42;;;;;;;7.55;2.72;;;;;;;18.44;50.93;101538.44;4971058;28;20258;-76
2022/11/05 09:24:07;;;;;;;5.65;2.15;;;;;;;19.16;49.76;101535.63;4973614;28;20615;-77
2022/11/05 09:26:33;;;;;;;5.38;2.60;;;;;;;18.71;50.14;101541.84;4982451;28;20239;-76
2022/11/05 09:28:58;;;;;;;4.45;2.20;;;;;;;19.89;48.82;101540.41;4979984;28;20267;-76
2022/11/05 09:31:30;;;;;;;4.55;2.25;;;;;;;19.82;46.53;101543.06;5066183;28;20568;-78
2022/11/05 09:33:56;;;;;;;5.43;2.60;;;;;;;20.10;46.79;101542.88;5047241;28;20324;-78
2022/11/05 09:36:21;;;;;;;4.65;2.60;;;;;;;20.61;45.83;101542.41;5047351;28;20185;-78
2022/11/05 09:38:46;;;;;;;4.68;2.30;;;;;;;21.43;44.37;101544.91;5045870;28;20550;-78
2022/11/05 09:41:47;;;;;;;5.13;2.38;;;;;;;20.99;44.06;101553.28;5047231;28;20201;-78
2022/11/05 09:44:22;;;;;;;6.63;2.42;;;;;;;21.54;44.77;101548.22;5044768;28;20329;-78
2022/11/05 09:47:01;;;;;;;4.22;2.40;;;;;;;19.68;45.72;101563.97;5043603;28;20185;-78
2022/11/05 09:49:34;;;;;;;4.63;2.13;;;;;;;19.90;47.09;101559.47;5046909;28;20204;-78
2022/11/05 09:52:00;;;;;;;3.85;2.25;;;;;;;21.05;44.95;101562.78;5041745;28;20197;-78
2022/11/05 09:54:30;;;;;;;5.82;2.50;;;;;;;21.77;43.52;101551.38;5044993;28;20279;-78
2022/11/05 09:56:56;;;;;;;6.30;2.58;;;;;;;22.95;40.65;101550.22;5047109;28;20186;-78
2022/11/05 09:59:32;;;;;;;6.47;2.58;;;;;;;22.87;40.37;101554.72;5046736;28;20182;-78
2022/11/05 10:02:26;;;;;;;3.75;2.17;;;;;;;22.18;41.05;101567.25;5044104;28;20215;-78
2022/11/05 10:04:56;;;;;;;5.63;2.30;;;;;;;22.49;41.82;101559.78;5046646;28;20197;-76
2022/11/05 10:07:27;;;;;;;3.95;2.00;;;;;;;23.27;39.62;101560.91;5047105;28;21002;-76
2022/11/05 10:10:01;;;;;;;3.50;2.20;;;;;;;22.88;39.97;101564.28;5045781;28;20222;-74
2022/11/05 10:12:46;;;;;;;3.75;2.35;;;;;;;22.32;40.39;101569.66;5045482;28;20209;-73
2022/11/05 10:15:35;;;;;;;4.25;2.05;;;;;;;18.26;47.42;101592.88;5046640;28;20304;-76
2022/11/05 10:18:15;;;;;;;4.80;2.40;;;;;;;21.60;42.25;101582.03;5046685;28;20190;-76
2022/11/05 10:20:41;;;;;;;5.23;2.53;;;;;;;23.01;39.27;101574.47;5042716;28;20198;-74
2022/11/05 10:23:15;;;;;;;4.90;2.50;;;;;;;24.17;37.75;101572.78;5046570;28;20198;-76
2022/11/05 10:25:45;;;;;;;4.87;2.20;;;;;;;21.49;41.90;101581.31;5045315;28;20173;-76
2022/11/05 10:28:20;;;;;;;5.50;2.03;;;;;;;18.54;47.96;101586.84;5046169;28;20655;-73
2022/11/05 10:30:49;;;;;;;5.87;2.33;;;;;;;17.68;50.83;101599.69;5046423;28;20260;-76
2022/11/05 10:33:27;;;;;;;4.43;2.17;;;;;;;17.80;50.59;101601.44;5046582;28;20217;-72
2022/11/05 10:35:58;;;;;;;4.50;2.00;;;;;;;20.05;46.14;101590.56;5034264;28;20198;-75
2022/11/05 10:38:24;;;;;;;5.63;2.33;;;;;;;19.97;46.05;101582.81;5043332;28;20251;-74
2022/11/05 10:41:05;;;;;;;5.57;1.90;;;;;;;18.51;48.42;101592.03;5040788;28;20605;-75
2022/11/05 10:43:47;;;;;;;4.33;2.10;;;;;;;18.19;50.48;101592.00;5012028;28;20238;-75
2022/11/05 10:46:13;;;;;;;4.47;2.10;;;;;;;18.15;50.58;101589.41;5029282;28;20201;-75
2022/11/05 10:49:16;;;;;;;5.53;2.27;;;;;;;18.27;51.43;101587.69;5025301;28;20199;-76
2022/11/05 10:51:42;;;;;;;5.83;2.20;;;;;;;18.16;51.38;101591.13;5030897;28;20205;-76
2022/11/05 10:54:17;;;;;;;6.97;2.10;;;;;;;20.14;46.28;101582.72;5015601;28;20235;-75
2022/11/05 10:56:43;;;;;;;8.27;2.10;;;;;;;22.62;40.52;101564.78;5012229;28;20210;-75
2022/11/05 10:59:18;;;;;;;3.42;1.90;;;;;;;24.73;36.10;101559.09;5012059;28;20191;-75
2022/11/05 11:01:44;;;;;;;3.47;1.90;;;;;;;24.90;35.80;101562.13;5010485;28;20278;-75
2022/11/05 11:04:23;;;;;;;3.35;2.00;;;;;;;24.47;36.55;101564.16;5007891;28;20206;-75
2022/11/05 11:06:52;;;;;;;4.35;1.60;;;;;;;23.02;38.63;101567.50;5010857;28;20202;-75
2022/11/05 11:09:21;;;;;;;4.83;1.80;;;;;;;19.04;46.36;101592.78;5011649;28;20195;-74
2022/11/05 11:11:55;;;;;;;3.70;1.70;;;;;;;18.30;48.43;101584.22;5003205;28;20227;-75
2022/11/05 11:14:21;;;;;;;7.13;1.80;;;;;;;17.01;52.09;101592.50;5008485;28;20198;-76
2022/11/05 11:16:55;;;;;;;3.67;1.90;;;;;;;17.62;51.33;101585.84;5009462;28;20191;-76
2022/11/05 11:19:27;;;;;;;4.03;1.80;;;;;;;17.66;49.55;101593.66;5007324;28;20197;-76
2022/11/05 11:22:02;;;;;;;4.80;1.87;;;;;;;17.74;50.72;101581.56;5011587;28;20199;-74
2022/11/05 11:24:28;;;;;;;5.20;1.90;;;;;;;19.98;44.79;101571.53;5008663;28;20202;-74
2022/11/05 11:27:01;;;;;;;5.83;2.27;;;;;;;23.33;38.32;101559.03;5009178;28;20191;-74
2022/11/05 11:29:29;;;;;;;4.15;1.98;;;;;;;26.38;33.71;101543.53;5009866;28;20211;-75
2022/11/05 11:31:56;;;;;;;3.95;1.83;;;;;;;21.44;41.53;101565.75;5004972;28;20191;-74
2022/11/05 11:34:28;;;;;;;4.53;1.60;;;;;;;22.38;40.78;101561.72;5011639;28;20211;-75
2022/11/05 11:37:00;;;;;;;4.22;1.88;;;;;;;24.62;36.28;101555.94;5007213;28;20231;-76
2022/11/05 11:39:29;;;;;;;4.10;1.88;;;;;;;24.36;35.65;101549.63;5008887;28;20210;-76
2022/11/05 11:42:01;;;;;;;3.95;1.63;;;;;;;24.07;35.81;101562.59;5010963;28;20677;-75
2022/11/05 11:44:42;;;;;;;3.50;2.05;;;;;;;25.83;33.74;101561.13;5005623;28;20198;-76
2022/11/05 11:47:20;;;;;;;5.18;1.90;;;;;;;22.70;38.74;101575.94;5011483;28;20198;-76
2022/11/05 11:49:48;;;;;;;2.70;1.50;;;;;;;21.48;40.71;101576.97;5010102;28;20222;-76
2022/11/05 11:52:35;;;;;;;5.30;2.00;;;;;;;18.45;47.17;101592.91;5010286;28;20198;-76
2022/11/05 11:55:19;;;;;;;2.80;1.77;;;;;;;23.20;37.88;101570.63;5009868;28;20297;-77
2022/11/05 11:57:50;;;;;;;4.63;2.10;;;;;;;19.24;46.22;101591.00;5009629;28;20274;-76
2022/11/05 12:00:17;;;;;;;3.88;1.98;;;;;;;26.17;34.34;101556.53;5010536;28;20536;-77
2022/11/05 12:03:02;;;;;;;4.80;1.90;;;;;;;21.30;40.34;101582.44;5007612;28;20218;-77
2022/11/05 12:06:13;;;;;;;2.57;1.50;;;;;;;17.25;50.22;101607.25;5008483;28;20715;-76
2022/11/05 12:09:04;;;;;;;3.77;1.77;;;;;;;16.19;54.08;101607.38;4975802;28;20206;-77
2022/11/05 12:11:54;;;;;;;2.97;1.90;;;;;;;21.60;41.80;101569.00;5010034;28;20552;-76
2022/11/05 12:14:31;;;;;;;3.63;1.60;;;;;;;20.37;43.78;101584.28;4994144;28;20734;-76
2022/11/05 12:17:24;;;;;;;3.17;2.00;;;;;;;17.76;50.68;101594.53;5011126;28;20931;-76
2022/11/05 12:20:03;;;;;;;3.27;1.70;;;;;;;17.44;50.72;101588.38;5009876;28;20558;-77
2022/11/05 12:23:02;;;;;;;4.60;2.00;;;;;;;16.41;54.02;101602.44;5011324;28;20575;-76
2022/11/05 12:25:32;;;;;;;3.27;1.80;;;;;;;16.20;55.44;101598.75;5009438;28;20233;-76